createdAt,value
2023-04-22T00:00:30.026Z,10.28
2023-04-22T00:01:30.564Z,10.31
2023-04-22T00:02:30.537Z,10.33
2023-04-22T00:03:30.693Z,10.20
2023-04-22T00:04:30.720Z,10.26
2023-04-22T00:05:30.729Z,10.22
2023-04-22T00:06:31.230Z,10.25
2023-04-22T00:07:31.724Z,10.33
2023-04-22T00:08:32.228Z,10.31
2023-04-22T00:09:32.712Z,10.38
2023-04-22T00:10:33.225Z,10.42
2023-04-22T00:11:33.706Z,10.38
2023-04-22T00:12:34.188Z,10.44
2023-04-22T00:13:34.664Z,10.64
2023-04-22T00:14:35.136Z,10.71
2023-04-22T00:15:35.615Z,10.61
2023-04-22T00:16:36.265Z,10.69
2023-04-22T00:17:36.333Z,10.72
2023-04-22T00:18:36.819Z,10.67
2023-04-22T00:19:37.582Z,10.56
2023-04-22T00:20:37.648Z,10.61
2023-04-22T00:21:38.117Z,10.54
2023-04-22T00:22:38.607Z,10.44
2023-04-22T00:23:39.064Z,10.60
2023-04-22T00:24:39.541Z,10.63
2023-04-22T00:25:39.977Z,10.57
2023-04-22T00:26:40.451Z,10.64
2023-04-22T00:27:40.908Z,10.74
2023-04-22T00:28:41.416Z,10.76
2023-04-22T00:29:41.889Z,10.78
2023-04-22T00:30:42.387Z,10.82
2023-04-22T00:31:43.301Z,10.90
2023-04-22T00:32:43.484Z,10.96
2023-04-22T00:33:43.432Z,11.02
2023-04-22T00:34:43.968Z,11.00
2023-04-22T00:35:44.501Z,11.07
2023-04-22T00:36:44.456Z,11.00
2023-04-22T00:37:44.985Z,11.04
2023-04-22T00:38:44.932Z,11.07
2023-04-22T00:39:45.447Z,11.04
2023-04-22T00:40:45.930Z,11.08
2023-04-22T00:41:46.448Z,11.10
2023-04-22T00:42:46.974Z,11.08
2023-04-22T00:43:47.456Z,11.10
2023-04-22T00:44:47.977Z,11.14
2023-04-22T00:45:48.504Z,11.14
2023-04-22T00:46:49.074Z,11.11
2023-04-22T00:47:49.238Z,11.07
2023-04-22T00:48:49.344Z,10.92
2023-04-22T00:49:49.855Z,10.59
2023-04-22T00:50:50.541Z,10.37
2023-04-22T00:51:50.683Z,10.22
2023-04-22T00:52:50.738Z,9.95
2023-04-22T00:53:50.548Z,9.87
2023-04-22T00:54:50.998Z,10.04
2023-04-22T00:55:51.478Z,10.20
2023-04-22T00:56:51.954Z,10.28
2023-04-22T00:57:52.501Z,10.34
2023-04-22T00:58:52.458Z,10.42
2023-04-22T00:59:52.405Z,10.51
2023-04-22T01:00:53.014Z,10.61
2023-04-22T01:01:53.031Z,10.67
2023-04-22T01:02:53.137Z,10.59
2023-04-22T01:03:53.395Z,10.64
2023-04-22T01:04:53.577Z,10.76
2023-04-22T01:05:53.534Z,10.71
2023-04-22T01:06:54.049Z,10.76
2023-04-22T01:07:54.564Z,10.78
2023-04-22T01:08:55.090Z,10.84
2023-04-22T01:09:55.610Z,10.82
2023-04-22T01:10:56.151Z,10.89
2023-04-22T01:11:56.704Z,10.92
2023-04-22T01:12:56.648Z,10.93
2023-04-22T01:13:57.195Z,10.97
2023-04-22T01:14:57.144Z,10.94
2023-04-22T01:15:57.678Z,10.92
2023-04-22T01:16:58.314Z,10.93
2023-04-22T01:17:58.420Z,10.93
2023-04-22T01:18:58.384Z,10.99
2023-04-22T01:19:58.907Z,10.99
2023-04-22T01:20:59.443Z,10.84
2023-04-22T01:21:59.976Z,10.96
2023-04-22T01:23:00.495Z,11.04
2023-04-22T01:24:01.021Z,11.02
2023-04-22T01:25:01.566Z,11.04
2023-04-22T01:26:01.513Z,11.05
2023-04-22T01:27:02.091Z,11.08
2023-04-22T01:28:02.086Z,11.08
2023-04-22T01:29:02.603Z,11.10
2023-04-22T01:30:03.128Z,11.05
2023-04-22T01:31:03.153Z,11.04
2023-04-22T01:32:03.742Z,11.05
2023-04-22T01:33:03.786Z,11.02
2023-04-22T01:34:03.781Z,10.94
2023-04-22T01:35:03.760Z,10.92
2023-04-22T01:36:03.720Z,10.94
2023-04-22T01:37:04.251Z,10.94
2023-04-22T01:38:04.788Z,10.96
2023-04-22T01:39:05.321Z,11.00
2023-04-22T01:40:05.859Z,11.00
2023-04-22T01:41:05.798Z,10.96
2023-04-22T01:42:06.331Z,10.97
2023-04-22T01:43:06.832Z,10.96
2023-04-22T01:44:07.330Z,10.89
2023-04-22T01:45:07.840Z,10.86
2023-04-22T01:46:08.349Z,10.90
2023-04-22T01:47:08.316Z,10.82
2023-04-22T01:48:08.852Z,10.82
2023-04-22T01:49:08.770Z,10.74
2023-04-22T01:50:09.306Z,10.71
2023-04-22T01:51:09.255Z,10.71
2023-04-22T01:52:09.790Z,10.69
2023-04-22T01:53:10.421Z,10.76
2023-04-22T01:54:10.406Z,10.76
2023-04-22T01:55:10.366Z,10.79
2023-04-22T01:56:10.915Z,10.81
2023-04-22T01:57:10.870Z,10.86
2023-04-22T01:58:11.376Z,10.79
2023-04-22T01:59:11.866Z,10.78
2023-04-22T02:00:12.360Z,10.78
2023-04-22T02:01:12.978Z,10.81
2023-04-22T02:02:12.978Z,10.72
2023-04-22T02:03:13.013Z,10.64
2023-04-22T02:04:13.013Z,10.56
2023-04-22T02:05:13.604Z,10.54
2023-04-22T02:06:13.581Z,10.54
2023-04-22T02:07:14.082Z,10.51
2023-04-22T02:08:14.587Z,10.54
2023-04-22T02:09:15.114Z,10.56
2023-04-22T02:10:15.588Z,10.71
2023-04-22T02:11:16.044Z,10.61
2023-04-22T02:12:16.513Z,10.63
2023-04-22T02:13:17.019Z,10.51
2023-04-22T02:14:17.571Z,10.48
2023-04-22T02:15:18.058Z,10.37
2023-04-22T02:16:18.630Z,10.48
2023-04-22T02:17:18.584Z,10.51
2023-04-22T02:18:19.113Z,10.56
2023-04-22T02:19:19.639Z,10.53
2023-04-22T02:20:20.212Z,10.51
2023-04-22T02:21:20.172Z,10.60
2023-04-22T02:22:20.162Z,10.64
2023-04-22T02:23:20.121Z,10.61
2023-04-22T02:24:20.658Z,10.57
2023-04-22T02:25:21.249Z,10.46
2023-04-22T02:26:21.189Z,10.30
2023-04-22T02:27:21.718Z,10.26
2023-04-22T02:28:22.261Z,10.16
2023-04-22T02:29:22.789Z,10.13
2023-04-22T02:30:23.307Z,10.01
2023-04-22T02:31:23.851Z,10.07
2023-04-22T02:32:23.824Z,10.13
2023-04-22T02:33:24.283Z,10.13
2023-04-22T02:34:24.753Z,10.16
2023-04-22T02:35:25.231Z,10.09
2023-04-22T02:36:25.690Z,10.02
2023-04-22T02:37:26.120Z,9.98
2023-04-22T02:38:26.538Z,9.99
2023-04-22T02:39:26.971Z,10.04
2023-04-22T02:40:27.454Z,10.07
2023-04-22T02:41:27.989Z,10.02
2023-04-22T02:42:28.481Z,10.01
2023-04-22T02:43:29.018Z,10.01
2023-04-22T02:44:29.496Z,9.98
2023-04-22T02:45:30.019Z,10.04
2023-04-22T02:46:30.565Z,10.05
2023-04-22T02:47:31.060Z,9.94
2023-04-22T02:48:31.489Z,9.80
2023-04-22T02:49:31.912Z,9.73
2023-04-22T02:50:32.342Z,9.65
2023-04-22T02:51:32.793Z,9.65
2023-04-22T02:52:33.239Z,9.76
2023-04-22T02:53:33.676Z,9.80
2023-04-22T02:54:34.098Z,9.87
2023-04-22T02:55:34.520Z,9.84
2023-04-22T02:56:34.929Z,9.89
2023-04-22T02:57:35.341Z,9.98
2023-04-22T02:58:35.799Z,9.99
2023-04-22T02:59:36.285Z,10.10
2023-04-22T03:00:36.252Z,10.13
2023-04-22T03:01:36.746Z,10.13
2023-04-22T03:02:37.395Z,10.01
2023-04-22T03:03:37.577Z,9.77
2023-04-22T03:04:37.764Z,9.56
2023-04-22T03:05:38.215Z,9.26
2023-04-22T03:06:38.699Z,9.21
2023-04-22T03:07:39.119Z,9.06
2023-04-22T03:08:39.547Z,8.92
2023-04-22T03:09:40.354Z,8.73
2023-04-22T03:10:40.363Z,8.74
2023-04-22T03:11:40.776Z,8.79
2023-04-22T03:12:41.229Z,8.79
2023-04-22T03:13:41.691Z,8.79
2023-04-22T03:14:42.105Z,8.74
2023-04-22T03:15:42.540Z,8.71
2023-04-22T03:16:42.959Z,8.66
2023-04-22T03:17:43.458Z,8.69
2023-04-22T03:18:43.923Z,8.81
2023-04-22T03:19:44.324Z,8.85
2023-04-22T03:20:44.842Z,8.78
2023-04-22T03:21:45.315Z,8.95
2023-04-22T03:22:45.762Z,8.95
2023-04-22T03:23:46.188Z,8.94
2023-04-22T03:24:46.629Z,8.92
2023-04-22T03:25:47.080Z,9.04
2023-04-22T03:26:47.530Z,9.22
2023-04-22T03:27:47.956Z,9.32
2023-04-22T03:28:48.382Z,9.44
2023-04-22T03:29:48.801Z,9.51
2023-04-22T03:30:49.243Z,9.54
2023-04-22T03:31:49.755Z,9.41
2023-04-22T03:32:49.784Z,9.37
2023-04-22T03:33:50.263Z,9.40
2023-04-22T03:34:50.735Z,9.40
2023-04-22T03:35:51.194Z,9.50
2023-04-22T03:36:51.638Z,9.55
2023-04-22T03:37:52.119Z,9.58
2023-04-22T03:38:52.602Z,9.44
2023-04-22T03:39:53.109Z,9.34
2023-04-22T03:40:53.588Z,9.29
2023-04-22T03:41:54.083Z,9.21
2023-04-22T03:42:54.605Z,9.16
2023-04-22T03:43:55.087Z,9.26
2023-04-22T03:44:55.604Z,9.34
2023-04-22T03:45:56.149Z,9.40
2023-04-22T03:46:56.665Z,9.34
2023-04-22T03:47:56.956Z,9.41
2023-04-22T03:48:56.903Z,9.44
2023-04-22T03:49:57.432Z,9.43
2023-04-22T03:50:57.898Z,9.44
2023-04-22T03:51:58.366Z,9.39
2023-04-22T03:52:58.811Z,9.59
2023-04-22T03:53:59.227Z,9.65
2023-04-22T03:54:59.661Z,9.66
2023-04-22T03:56:00.157Z,9.68
2023-04-22T03:57:00.604Z,9.56
2023-04-22T03:58:01.049Z,9.51
2023-04-22T03:59:01.488Z,9.44
2023-04-22T04:00:01.923Z,9.46
2023-04-22T04:01:02.381Z,9.36
2023-04-22T04:02:02.989Z,9.22
2023-04-22T04:03:03.267Z,9.23
2023-04-22T04:04:03.695Z,9.11
2023-04-22T04:05:04.118Z,9.14
2023-04-22T04:06:04.248Z,9.08
2023-04-22T04:07:04.115Z,9.04
2023-04-22T04:08:04.536Z,8.97
2023-04-22T04:09:04.944Z,9.02
2023-04-22T04:10:05.361Z,9.25
2023-04-22T04:11:05.766Z,9.31
2023-04-22T04:12:06.163Z,9.36
2023-04-22T04:13:06.570Z,9.36
2023-04-22T04:14:06.977Z,9.43
2023-04-22T04:15:07.376Z,9.44
2023-04-22T04:16:08.005Z,9.36
2023-04-22T04:17:07.856Z,9.19
2023-04-22T04:18:08.326Z,8.99
2023-04-22T04:19:08.861Z,8.78
2023-04-22T04:20:09.310Z,8.61
2023-04-22T04:21:09.736Z,8.52
2023-04-22T04:22:10.179Z,8.73
2023-04-22T04:23:10.602Z,8.81
2023-04-22T04:24:11.052Z,8.79
2023-04-22T04:25:11.463Z,8.74
2023-04-22T04:26:11.900Z,8.52
2023-04-22T04:27:12.330Z,8.41
2023-04-22T04:28:12.749Z,8.27
2023-04-22T04:29:13.175Z,8.30
2023-04-22T04:30:13.580Z,8.26
2023-04-22T04:31:14.048Z,8.30
2023-04-22T04:32:14.520Z,8.37
2023-04-22T04:33:14.919Z,8.42
2023-04-22T04:34:15.334Z,8.46
2023-04-22T04:35:15.777Z,8.52
2023-04-22T04:36:16.193Z,8.60
2023-04-22T04:37:16.612Z,8.55
2023-04-22T04:38:17.032Z,8.51
2023-04-22T04:39:17.456Z,8.49
2023-04-22T04:40:17.868Z,8.30
2023-04-22T04:41:18.314Z,8.19
2023-04-22T04:42:18.758Z,8.26
2023-04-22T04:43:19.200Z,8.44
2023-04-22T04:44:19.639Z,8.60
2023-04-22T04:45:20.079Z,8.58
2023-04-22T04:46:20.585Z,8.69
2023-04-22T04:47:21.074Z,8.61
2023-04-22T04:48:21.548Z,8.55
2023-04-22T04:49:21.977Z,8.60
2023-04-22T04:50:22.472Z,8.60
2023-04-22T04:51:22.893Z,8.67
2023-04-22T04:52:23.318Z,8.69
2023-04-22T04:53:23.763Z,8.78
2023-04-22T04:54:24.214Z,8.88
2023-04-22T04:55:24.648Z,9.03
2023-04-22T04:56:25.069Z,9.14
2023-04-22T04:57:25.507Z,9.16
2023-04-22T04:58:25.943Z,9.10
2023-04-22T04:59:26.362Z,9.14
2023-04-22T05:00:26.847Z,9.18
2023-04-22T05:01:27.341Z,9.22
2023-04-22T05:02:27.926Z,9.40
2023-04-22T05:03:27.996Z,9.39
2023-04-22T05:04:28.212Z,9.37
2023-04-22T05:05:28.173Z,9.41
2023-04-22T05:06:28.641Z,9.41
2023-04-22T05:07:29.095Z,9.40
2023-04-22T05:08:29.521Z,9.55
2023-04-22T05:09:29.929Z,9.47
2023-04-22T05:10:30.343Z,9.50
2023-04-22T05:11:30.790Z,9.51
2023-04-22T05:12:31.245Z,9.64
2023-04-22T05:13:31.699Z,9.74
2023-04-22T05:14:32.134Z,9.65
2023-04-22T05:15:32.565Z,9.82
2023-04-22T05:16:33.044Z,9.80
2023-04-22T05:17:33.530Z,9.83
2023-04-22T05:18:33.974Z,9.82
2023-04-22T05:19:34.404Z,9.59
2023-04-22T05:20:36.216Z,9.55
2023-04-22T05:21:35.071Z,9.54
2023-04-22T05:22:35.506Z,9.51
2023-04-22T05:23:35.932Z,9.48
2023-04-22T05:24:36.369Z,9.47
2023-04-22T05:25:36.809Z,9.36
2023-04-22T05:26:37.234Z,9.26
2023-04-22T05:27:37.666Z,9.19
2023-04-22T05:28:38.123Z,9.08
2023-04-22T05:29:38.896Z,9.00
2023-04-22T05:30:38.966Z,9.02
2023-04-22T05:31:39.459Z,9.04
2023-04-22T05:32:39.936Z,9.08
2023-04-22T05:33:40.362Z,9.08
2023-04-22T05:34:40.760Z,9.08
2023-04-22T05:35:41.167Z,9.21
2023-04-22T05:36:41.603Z,9.28
2023-04-22T05:37:42.026Z,9.29
2023-04-22T05:38:42.467Z,9.25
2023-04-22T05:39:42.896Z,9.28
2023-04-22T05:40:43.323Z,9.32
2023-04-22T05:41:46.161Z,9.37
2023-04-22T05:42:43.791Z,9.46
2023-04-22T05:43:44.224Z,9.62
2023-04-22T05:44:44.643Z,9.74
2023-04-22T05:45:45.080Z,9.72
2023-04-22T05:46:45.534Z,9.73
2023-04-22T05:47:45.970Z,9.73
2023-04-22T05:48:46.442Z,9.66
2023-04-22T05:49:46.854Z,9.84
2023-04-22T05:50:47.280Z,9.79
2023-04-22T05:51:47.712Z,9.92
2023-04-22T05:52:48.135Z,9.87
2023-04-22T05:53:48.556Z,10.01
2023-04-22T05:54:48.999Z,9.94
2023-04-22T05:55:49.397Z,9.82
2023-04-22T05:56:49.791Z,9.83
2023-04-22T05:57:50.206Z,9.86
2023-04-22T05:58:50.619Z,9.94
2023-04-22T05:59:51.065Z,10.04
2023-04-22T06:00:51.505Z,10.12
2023-04-22T06:01:51.945Z,10.16
2023-04-22T06:02:52.485Z,9.97
2023-04-22T06:03:52.764Z,9.89
2023-04-22T06:04:53.159Z,9.92
2023-04-22T06:05:54.425Z,9.94
2023-04-22T06:06:54.721Z,9.91
2023-04-22T06:07:54.941Z,9.80
2023-04-22T06:08:54.179Z,9.76
2023-04-22T06:10:03.690Z,9.59
2023-04-22T06:10:54.674Z,9.62
2023-04-22T06:11:55.071Z,9.62
2023-04-22T06:12:55.490Z,9.77
2023-04-22T06:13:55.906Z,9.80
2023-04-22T06:14:56.305Z,9.76
2023-04-22T06:15:56.728Z,9.74
2023-04-22T06:16:57.155Z,9.66
2023-04-22T06:17:57.614Z,9.80
2023-04-22T06:18:58.037Z,9.86
2023-04-22T06:19:58.467Z,9.79
2023-04-22T06:20:58.889Z,9.69
2023-04-22T06:21:59.313Z,9.83
2023-04-22T06:22:59.714Z,9.87
2023-04-22T06:24:00.111Z,9.83
2023-04-22T06:25:00.543Z,9.82
2023-04-22T06:26:00.970Z,9.86
2023-04-22T06:27:01.393Z,9.91
2023-04-22T06:28:01.790Z,9.83
2023-04-22T06:29:02.213Z,9.86
2023-04-22T06:30:02.657Z,9.84
2023-04-22T06:31:03.129Z,9.82
2023-04-22T06:32:03.581Z,9.91
2023-04-22T06:33:04.065Z,9.98
2023-04-22T06:34:04.533Z,10.09
2023-04-22T06:35:05.009Z,10.17
2023-04-22T06:36:05.498Z,10.38
2023-04-22T06:37:05.979Z,10.48
2023-04-22T06:38:06.449Z,10.54
2023-04-22T06:39:06.927Z,10.68
2023-04-22T06:40:07.399Z,10.79
2023-04-22T06:41:07.867Z,10.87
2023-04-22T06:42:08.335Z,10.93
2023-04-22T06:43:08.940Z,10.99
2023-04-22T06:44:08.961Z,11.10
2023-04-22T06:45:08.959Z,11.15
2023-04-22T06:46:08.889Z,11.15
2023-04-22T06:47:08.851Z,11.27
2023-04-22T06:48:09.359Z,11.30
2023-04-22T06:49:09.833Z,11.33
2023-04-22T06:50:10.292Z,11.47
2023-04-22T06:51:10.757Z,11.62
2023-04-22T06:52:11.224Z,11.72
2023-04-22T06:53:11.694Z,11.84
2023-04-22T06:54:12.150Z,11.86
2023-04-22T06:55:12.603Z,11.90
2023-04-22T06:56:13.079Z,11.83
2023-04-22T06:57:13.529Z,11.83
2023-04-22T06:58:13.980Z,11.94
2023-04-22T06:59:14.449Z,12.06
2023-04-22T07:00:14.902Z,12.13
2023-04-22T07:01:15.353Z,12.12
2023-04-22T07:02:15.838Z,12.24
2023-04-22T07:03:15.844Z,12.37
2023-04-22T07:04:15.792Z,12.47
2023-04-22T07:05:16.274Z,12.62
2023-04-22T07:06:16.724Z,12.64
2023-04-22T07:07:17.168Z,12.70
2023-04-22T07:08:17.628Z,12.85
2023-04-22T07:09:18.076Z,12.90
2023-04-22T07:10:18.544Z,12.97
2023-04-22T07:11:18.999Z,12.98
2023-04-22T07:12:19.450Z,13.03
2023-04-22T07:13:19.927Z,13.11
2023-04-22T07:14:20.369Z,13.11
2023-04-22T07:15:20.813Z,13.19
2023-04-22T07:16:21.325Z,13.25
2023-04-22T07:17:21.272Z,13.38
2023-04-22T07:18:21.143Z,13.39
2023-04-22T07:19:21.576Z,13.41
2023-04-22T07:20:22.026Z,13.41
2023-04-22T07:21:22.462Z,13.41
2023-04-22T07:22:22.895Z,13.41
2023-04-22T07:23:23.331Z,13.49
2023-04-22T07:24:23.759Z,13.49
2023-04-22T07:25:24.180Z,13.47
2023-04-22T07:26:24.617Z,13.42
2023-04-22T07:27:25.045Z,13.50
2023-04-22T07:28:25.480Z,13.57
2023-04-22T07:29:25.888Z,13.60
2023-04-22T07:30:26.308Z,13.62
2023-04-22T07:31:26.744Z,13.59
2023-04-22T07:32:27.188Z,13.52
2023-04-22T07:33:27.622Z,13.46
2023-04-22T07:34:28.041Z,13.53
2023-04-22T07:35:28.472Z,13.63
2023-04-22T07:36:28.896Z,13.68
2023-04-22T07:37:29.342Z,13.78
2023-04-22T07:38:29.780Z,13.86
2023-04-22T07:39:30.199Z,13.93
2023-04-22T07:40:30.621Z,14.03
2023-04-22T07:41:31.059Z,14.14
2023-04-22T07:42:31.505Z,14.23
2023-04-22T07:43:31.940Z,14.33
2023-04-22T07:44:32.398Z,14.45
2023-04-22T07:45:32.864Z,14.55
2023-04-22T07:46:33.285Z,14.68
2023-04-22T07:47:33.745Z,14.69
2023-04-22T07:48:34.173Z,14.77
2023-04-22T07:49:34.591Z,14.84
2023-04-22T07:50:35.917Z,14.84
2023-04-22T07:51:35.450Z,14.84
2023-04-22T07:52:35.872Z,14.96
2023-04-22T07:53:36.281Z,14.99
2023-04-22T07:54:36.694Z,15.03
2023-04-22T07:55:37.119Z,15.06
2023-04-22T07:56:37.540Z,15.15
2023-04-22T07:57:37.931Z,15.27
2023-04-22T07:58:38.339Z,15.22
2023-04-22T07:59:39.059Z,15.37
2023-04-22T08:00:39.109Z,15.42
2023-04-22T08:01:39.540Z,15.51
2023-04-22T08:02:40.083Z,15.64
2023-04-22T08:03:40.205Z,15.72
2023-04-22T08:04:40.260Z,15.82
2023-04-22T08:05:40.147Z,15.88
2023-04-22T08:06:40.532Z,15.86
2023-04-22T08:07:40.934Z,15.92
2023-04-22T08:08:41.349Z,15.92
2023-04-22T08:09:41.875Z,15.88
2023-04-22T08:10:41.817Z,15.90
2023-04-22T08:11:42.216Z,16.04
2023-04-22T08:12:42.608Z,16.09
2023-04-22T08:13:43.004Z,16.26
2023-04-22T08:14:43.413Z,16.33
2023-04-22T08:15:43.898Z,16.41
2023-04-22T08:16:43.762Z,16.47
2023-04-22T08:17:44.215Z,16.53
2023-04-22T08:18:44.060Z,16.53
2023-04-22T08:19:44.456Z,16.57
2023-04-22T08:20:44.854Z,16.65
2023-04-22T08:21:45.225Z,16.74
2023-04-22T08:22:45.706Z,16.72
2023-04-22T08:23:45.542Z,16.66
2023-04-22T08:24:45.961Z,16.81
2023-04-22T08:25:46.351Z,16.97
2023-04-22T08:26:46.725Z,17.02
2023-04-22T08:27:47.110Z,16.99
2023-04-22T08:28:47.486Z,16.91
2023-04-22T08:29:47.856Z,16.96
2023-04-22T08:30:48.225Z,17.08
2023-04-22T08:31:48.730Z,17.27
2023-04-22T08:32:48.707Z,17.34
2023-04-22T08:33:48.552Z,17.36
2023-04-22T08:34:51.868Z,17.33
2023-04-22T08:35:48.982Z,17.29
2023-04-22T08:36:49.366Z,17.31
2023-04-22T08:37:49.760Z,17.38
2023-04-22T08:38:50.275Z,17.46
2023-04-22T08:39:50.117Z,17.44
2023-04-22T08:40:50.527Z,17.57
2023-04-22T08:41:50.947Z,17.86
2023-04-22T08:42:51.333Z,17.98
2023-04-22T08:43:51.713Z,18.04
2023-04-22T08:44:52.106Z,18.11
2023-04-22T08:45:52.477Z,18.18
2023-04-22T08:46:52.862Z,18.26
2023-04-22T08:47:53.265Z,18.26
2023-04-22T08:48:53.651Z,18.38
2023-04-22T08:49:54.029Z,18.55
2023-04-22T08:50:54.405Z,18.58
2023-04-22T08:51:54.767Z,18.58
2023-04-22T08:52:55.140Z,18.49
2023-04-22T08:53:55.510Z,18.25
2023-04-22T08:54:55.875Z,18.26
2023-04-22T08:55:56.241Z,18.31
2023-04-22T08:56:56.647Z,18.56
2023-04-22T08:57:57.025Z,18.74
2023-04-22T08:58:57.381Z,18.75
2023-04-22T08:59:57.749Z,18.68
2023-04-22T09:00:58.124Z,18.60
2023-04-22T09:01:58.720Z,18.59
2023-04-22T09:02:58.846Z,18.59
2023-04-22T09:03:58.813Z,18.65
2023-04-22T09:04:58.642Z,18.73
2023-04-22T09:05:59.008Z,18.80
2023-04-22T09:06:59.394Z,18.86
2023-04-22T09:07:59.763Z,18.74
2023-04-22T09:09:00.128Z,18.71
2023-04-22T09:10:00.502Z,18.63
2023-04-22T09:11:00.859Z,18.60
2023-04-22T09:12:01.236Z,18.50
2023-04-22T09:13:01.593Z,18.47
2023-04-22T09:14:01.965Z,18.45
2023-04-22T09:15:02.306Z,18.43
2023-04-22T09:16:02.691Z,18.65
2023-04-22T09:17:03.069Z,18.71
2023-04-22T09:18:03.475Z,18.89
2023-04-22T09:19:03.280Z,18.92
2023-04-22T09:20:03.647Z,18.99
2023-04-22T09:21:04.031Z,19.00
2023-04-22T09:22:04.368Z,18.88
2023-04-22T09:23:04.731Z,19.00
2023-04-22T09:24:05.089Z,19.07
2023-04-22T09:25:05.453Z,18.96
2023-04-22T09:26:05.828Z,18.99
2023-04-22T09:27:06.188Z,18.68
2023-04-22T09:28:06.551Z,18.66
2023-04-22T09:29:06.924Z,18.68
2023-04-22T09:30:07.294Z,18.62
2023-04-22T09:31:07.683Z,18.56
2023-04-22T09:32:08.260Z,18.58
2023-04-22T09:33:08.259Z,18.71
2023-04-22T09:34:08.036Z,18.71
2023-04-22T09:35:08.402Z,18.63
2023-04-22T09:36:08.777Z,18.81
2023-04-22T09:37:09.147Z,19.00
2023-04-22T09:38:09.541Z,19.04
2023-04-22T09:39:09.919Z,18.99
2023-04-22T09:40:10.284Z,18.89
2023-04-22T09:41:10.704Z,18.81
2023-04-22T09:42:11.051Z,18.98
2023-04-22T09:43:11.425Z,19.21
2023-04-22T09:44:11.806Z,19.33
2023-04-22T09:45:12.198Z,19.55
2023-04-22T09:46:12.576Z,19.88
2023-04-22T09:47:12.431Z,20.04
2023-04-22T09:48:12.813Z,19.92
2023-04-22T09:49:13.178Z,19.85
2023-04-22T09:50:13.544Z,19.99
2023-04-22T09:51:13.899Z,20.18
2023-04-22T09:52:14.268Z,20.37
2023-04-22T09:53:14.626Z,20.24
2023-04-22T09:54:15.011Z,20.28
2023-04-22T09:55:15.360Z,20.31
2023-04-22T09:56:15.693Z,20.34
2023-04-22T09:57:16.040Z,20.52
2023-04-22T09:58:16.402Z,20.56
2023-04-22T09:59:16.763Z,20.31
2023-04-22T10:00:17.191Z,20.13
2023-04-22T10:01:17.055Z,20.25
2023-04-22T10:02:16.861Z,20.32
2023-04-22T10:03:17.283Z,20.28
2023-04-22T10:04:17.116Z,20.25
2023-04-22T10:05:17.451Z,20.26
2023-04-22T10:06:17.796Z,20.26
2023-04-22T10:07:18.150Z,20.37
2023-04-22T10:08:18.509Z,20.59
2023-04-22T10:09:18.853Z,20.55
2023-04-22T10:10:19.182Z,20.67
2023-04-22T10:11:19.540Z,20.59
2023-04-22T10:12:26.079Z,20.50
2023-04-22T10:13:19.940Z,20.41
2023-04-22T10:14:20.301Z,20.52
2023-04-22T10:15:20.632Z,20.40
2023-04-22T10:16:20.998Z,20.41
2023-04-22T10:17:20.839Z,20.55
2023-04-22T10:18:21.190Z,20.65
2023-04-22T10:19:21.554Z,20.70
2023-04-22T10:20:21.885Z,20.67
2023-04-22T10:21:22.211Z,20.87
2023-04-22T10:22:22.533Z,20.96
2023-04-22T10:23:22.865Z,21.27
2023-04-22T10:24:23.196Z,21.39
2023-04-22T10:25:23.514Z,21.32
2023-04-22T10:26:23.838Z,21.36
2023-04-22T10:27:24.178Z,21.48
2023-04-22T10:28:24.516Z,21.64
2023-04-22T10:29:24.868Z,21.88
2023-04-22T10:30:25.220Z,21.95
2023-04-22T10:31:25.610Z,22.11
2023-04-22T10:32:25.392Z,22.15
2023-04-22T10:33:25.759Z,22.06
2023-04-22T10:34:26.089Z,22.25
2023-04-22T10:35:26.433Z,22.13
2023-04-22T10:36:26.772Z,22.36
2023-04-22T10:37:27.120Z,22.35
2023-04-22T10:38:27.448Z,22.38
2023-04-22T10:39:27.787Z,22.44
2023-04-22T10:40:28.131Z,22.33
2023-04-22T10:41:28.473Z,22.33
2023-04-22T10:42:28.810Z,22.07
2023-04-22T10:43:29.118Z,22.30
2023-04-22T10:44:29.422Z,22.22
2023-04-22T10:45:29.748Z,22.29
2023-04-22T10:46:30.110Z,22.39
2023-04-22T10:47:29.922Z,22.44
2023-04-22T10:48:30.251Z,22.45
2023-04-22T10:49:30.572Z,22.29
2023-04-22T10:50:30.898Z,22.35
2023-04-22T10:51:31.238Z,22.18
2023-04-22T10:52:31.569Z,22.48
2023-04-22T10:53:31.915Z,22.80
2023-04-22T10:54:32.647Z,23.00
2023-04-22T10:55:32.480Z,23.24
2023-04-22T10:56:32.837Z,23.34
2023-04-22T10:57:33.194Z,23.34
2023-04-22T10:58:33.521Z,23.54
2023-04-22T10:59:33.827Z,23.74
2023-04-22T11:00:45.755Z,23.80
2023-04-22T11:01:34.163Z,23.58
2023-04-22T11:02:34.604Z,23.69
2023-04-22T11:03:34.648Z,23.76
2023-04-22T11:04:34.732Z,23.43
2023-04-22T11:05:34.504Z,23.27
2023-04-22T11:06:34.798Z,23.27
2023-04-22T11:07:35.105Z,23.18
2023-04-22T11:08:35.412Z,22.70
2023-04-22T11:09:35.711Z,22.62
2023-04-22T11:10:36.010Z,22.57
2023-04-22T11:11:36.333Z,22.80
2023-04-22T11:12:36.656Z,22.98
2023-04-22T11:13:36.956Z,23.28
2023-04-22T11:14:37.261Z,23.55
2023-04-22T11:15:37.558Z,23.66
2023-04-22T11:16:37.921Z,23.63
2023-04-22T11:17:37.667Z,23.62
2023-04-22T11:18:38.012Z,23.56
2023-04-22T11:19:38.659Z,23.43
2023-04-22T11:20:38.566Z,23.59
2023-04-22T11:21:38.851Z,23.74
2023-04-22T11:22:39.145Z,23.44
2023-04-22T11:23:39.451Z,23.50
2023-04-22T11:24:39.726Z,23.44
2023-04-22T11:25:40.004Z,23.24
2023-04-22T11:26:40.282Z,23.08
2023-04-22T11:27:40.571Z,23.31
2023-04-22T11:28:40.851Z,23.61
2023-04-22T11:29:41.240Z,23.83
2023-04-22T11:30:41.093Z,23.98
2023-04-22T11:31:41.409Z,24.11
2023-04-22T11:32:41.730Z,24.26
2023-04-22T11:33:42.065Z,24.35
2023-04-22T11:34:42.272Z,24.23
2023-04-22T11:35:42.005Z,24.14
2023-04-22T11:36:42.281Z,24.10
2023-04-22T11:37:42.558Z,24.17
2023-04-22T11:38:42.828Z,24.01
2023-04-22T11:39:59.678Z,23.99
2023-04-22T11:40:46.215Z,24.14
2023-04-22T11:41:43.368Z,24.11
2023-04-22T11:42:43.662Z,23.99
2023-04-22T11:43:43.960Z,24.11
2023-04-22T11:44:44.227Z,24.23
2023-04-22T11:45:44.521Z,24.29
2023-04-22T11:46:44.269Z,24.26
2023-04-22T11:47:44.523Z,24.26
2023-04-22T11:48:44.737Z,24.39
2023-04-22T11:49:44.961Z,24.54
2023-04-22T11:50:45.195Z,24.35
2023-04-22T11:51:45.409Z,24.24
2023-04-22T11:52:45.657Z,24.23
2023-04-22T11:53:45.298Z,24.16
2023-04-22T11:54:45.515Z,24.14
2023-04-22T11:55:45.728Z,23.96
2023-04-22T11:56:45.930Z,24.13
2023-04-22T11:57:46.145Z,23.88
2023-04-22T11:58:46.360Z,23.66
2023-04-22T11:59:46.585Z,23.73
2023-04-22T12:00:46.829Z,23.93
2023-04-22T12:01:47.262Z,24.28
2023-04-22T12:02:47.061Z,24.26
2023-04-22T12:03:46.952Z,24.40
2023-04-22T12:04:46.837Z,24.39
2023-04-22T12:05:46.546Z,23.98
2023-04-22T12:06:46.774Z,23.84
2023-04-22T12:07:47.008Z,23.55
2023-04-22T12:08:47.216Z,23.10
2023-04-22T12:09:47.422Z,23.34
2023-04-22T12:10:47.639Z,23.59
2023-04-22T12:11:47.863Z,23.63
2023-04-22T12:12:48.073Z,24.10
2023-04-22T12:13:48.283Z,24.40
2023-04-22T12:14:48.496Z,24.53
2023-04-22T12:15:48.696Z,24.69
2023-04-22T12:16:48.944Z,24.40
2023-04-22T12:17:48.635Z,24.20
2023-04-22T12:18:48.819Z,23.98
2023-04-22T12:19:49.045Z,23.63
2023-04-22T12:20:49.268Z,23.36
2023-04-22T12:21:49.476Z,23.20
2023-04-22T12:22:49.729Z,23.21
2023-04-22T12:23:49.972Z,23.36
2023-04-22T12:24:50.219Z,23.47
2023-04-22T12:25:50.448Z,23.47
2023-04-22T12:26:50.686Z,23.48
2023-04-22T12:27:50.930Z,23.50
2023-04-22T12:28:51.167Z,23.59
2023-04-22T12:29:52.394Z,23.54
2023-04-22T12:30:51.485Z,23.47
2023-04-22T12:31:51.751Z,23.46
2023-04-22T12:32:52.030Z,23.43
2023-04-22T12:33:52.312Z,23.39
2023-04-22T12:34:52.585Z,23.25
2023-04-22T12:35:52.859Z,23.12
2023-04-22T12:36:53.138Z,23.18
2023-04-22T12:37:53.418Z,23.21
2023-04-22T12:38:53.705Z,23.10
2023-04-22T12:39:53.987Z,23.05
2023-04-22T12:40:54.280Z,23.00
2023-04-22T12:41:54.579Z,23.20
2023-04-22T12:42:54.877Z,23.34
2023-04-22T12:43:55.183Z,23.25
2023-04-22T12:44:55.525Z,23.36
2023-04-22T12:45:55.820Z,23.34
2023-04-22T12:46:56.107Z,23.28
2023-04-22T12:47:56.502Z,23.25
2023-04-22T12:48:56.219Z,23.23
2023-04-22T12:49:56.502Z,23.20
2023-04-22T12:50:56.786Z,22.98
2023-04-22T12:51:57.060Z,22.91
2023-04-22T12:52:57.328Z,22.66
2023-04-22T12:53:57.627Z,22.73
2023-04-22T12:54:57.922Z,22.91
2023-04-22T12:55:58.201Z,23.00
2023-04-22T12:56:58.501Z,23.00
2023-04-22T12:57:58.786Z,22.99
2023-04-22T12:58:59.054Z,23.05
2023-04-22T12:59:59.335Z,22.96
2023-04-22T13:00:59.614Z,22.80
2023-04-22T13:01:59.921Z,22.73
2023-04-22T13:03:00.403Z,22.60
2023-04-22T13:04:00.533Z,22.65